sensor_id;sensor_type;location;lat;lon;timestamp;P1;P2;P0
70566;PMS5003;58249;46.792;-71.248;2022-09-03T00:01:56;4.00;3.00;3.00
70566;PMS5003;58249;46.792;-71.248;2022-09-03T00:04:09;5.00;5.00;3.25
70566;PMS5003;58249;46.792;-71.248;2022-09-03T00:06:20;3.00;3.00;2.00
70566;PMS5003;58249;46.792;-71.248;2022-09-03T00:08:29;5.50;4.50;3.75
70566;PMS5003;58249;46.792;-71.248;2022-09-03T00:10:36;4.25;4.25;2.00
70566;PMS5003;58249;46.792;-71.248;2022-09-03T00:12:44;4.50;4.50;3.00
70566;PMS5003;58249;46.792;-71.248;2022-09-03T00:14:49;6.50;6.25;4.00
70566;PMS5003;58249;46.792;-71.248;2022-09-03T00:16:55;5.75;5.75;3.50
70566;PMS5003;58249;46.792;-71.248;2022-09-03T00:19:01;5.00;5.00;3.00
70566;PMS5003;58249;46.792;-71.248;2022-09-03T00:21:06;4.25;4.25;3.00
70566;PMS5003;58249;46.792;-71.248;2022-09-03T00:23:13;7.25;6.00;3.50
70566;PMS5003;58249;46.792;-71.248;2022-09-03T00:25:22;5.00;4.00;3.00
70566;PMS5003;58249;46.792;-71.248;2022-09-03T00:27:27;5.75;5.50;3.50
70566;PMS5003;58249;46.792;-71.248;2022-09-03T00:29:34;3.50;3.50;2.00
70566;PMS5003;58249;46.792;-71.248;2022-09-03T00:31:40;5.75;4.00;3.00
70566;PMS5003;58249;46.792;-71.248;2022-09-03T00:33:45;2.50;2.25;1.00
70566;PMS5003;58249;46.792;-71.248;2022-09-03T00:35:53;3.00;3.00;2.00
70566;PMS5003;58249;46.792;-71.248;2022-09-03T00:37:59;2.50;2.25;2.00
70566;PMS5003;58249;46.792;-71.248;2022-09-03T00:40:03;4.00;4.00;2.00
70566;PMS5003;58249;46.792;-71.248;2022-09-03T00:42:13;5.00;4.25;2.75
70566;PMS5003;58249;46.792;-71.248;2022-09-03T00:44:37;3.00;3.00;2.00
70566;PMS5003;58249;46.792;-71.248;2022-09-03T00:47:04;5.75;5.75;3.00
70566;PMS5003;58249;46.792;-71.248;2022-09-03T00:49:16;7.75;7.25;5.00
70566;PMS5003;58249;46.792;-71.248;2022-09-03T00:51:30;7.25;7.25;4.00
70566;PMS5003;58249;46.792;-71.248;2022-09-03T00:53:37;9.75;9.75;6.00
70566;PMS5003;58249;46.792;-71.248;2022-09-03T00:55:47;9.50;9.50;6.00
70566;PMS5003;58249;46.792;-71.248;2022-09-03T00:58:05;8.00;8.00;6.25
70566;PMS5003;58249;46.792;-71.248;2022-09-03T01:00:22;33.67;30.67;23.67
70566;PMS5003;58249;46.792;-71.248;2022-09-03T01:02:26;45.33;37.67;27.00
70566;PMS5003;58249;46.792;-71.248;2022-09-03T01:04:38;45.00;38.00;26.67
70566;PMS5003;58249;46.792;-71.248;2022-09-03T01:06:52;30.00;28.67;20.00
70566;PMS5003;58249;46.792;-71.248;2022-09-03T01:09:02;15.75;15.75;12.25
70566;PMS5003;58249;46.792;-71.248;2022-09-03T01:11:17;14.00;13.00;9.00
70566;PMS5003;58249;46.792;-71.248;2022-09-03T01:13:29;15.00;15.00;10.33
70566;PMS5003;58249;46.792;-71.248;2022-09-03T01:15:44;16.33;14.33;9.00
70566;PMS5003;58249;46.792;-71.248;2022-09-03T01:17:54;16.67;16.67;13.00
70566;PMS5003;58249;46.792;-71.248;2022-09-03T01:25:16;15.00;14.33;11.00
70566;PMS5003;58249;46.792;-71.248;2022-09-03T01:27:35;16.67;15.33;10.67
70566;PMS5003;58249;46.792;-71.248;2022-09-03T01:29:48;10.50;10.50;7.75
70566;PMS5003;58249;46.792;-71.248;2022-09-03T01:31:58;7.50;7.50;6.00
70566;PMS5003;58249;46.792;-71.248;2022-09-03T01:34:08;10.25;10.25;7.00
70566;PMS5003;58249;46.792;-71.248;2022-09-03T01:36:19;11.00;9.25;7.50
70566;PMS5003;58249;46.792;-71.248;2022-09-03T01:38:29;11.25;11.25;8.00
70566;PMS5003;58249;46.792;-71.248;2022-09-03T01:40:37;11.75;11.75;8.50
70566;PMS5003;58249;46.792;-71.248;2022-09-03T01:42:47;11.25;11.25;7.75
70566;PMS5003;58249;46.792;-71.248;2022-09-03T01:45:14;9.75;9.00;6.00
70566;PMS5003;58249;46.792;-71.248;2022-09-03T01:47:31;13.25;13.25;9.50
70566;PMS5003;58249;46.792;-71.248;2022-09-03T01:49:40;14.33;14.33;11.00
70566;PMS5003;58249;46.792;-71.248;2022-09-03T01:51:50;12.00;12.00;9.67
70566;PMS5003;58249;46.792;-71.248;2022-09-03T01:54:14;10.25;10.25;7.25
70566;PMS5003;58249;46.792;-71.248;2022-09-03T01:56:27;9.75;8.50;6.75
70566;PMS5003;58249;46.792;-71.248;2022-09-03T01:58:39;11.00;8.00;7.00
70566;PMS5003;58249;46.792;-71.248;2022-09-03T02:00:48;12.33;12.33;9.00
70566;PMS5003;58249;46.792;-71.248;2022-09-03T02:03:16;11.33;11.33;9.00
70566;PMS5003;58249;46.792;-71.248;2022-09-03T02:05:20;6.00;6.00;4.75
70566;PMS5003;58249;46.792;-71.248;2022-09-03T02:07:25;11.00;11.00;8.25
70566;PMS5003;58249;46.792;-71.248;2022-09-03T02:09:33;12.00;12.00;10.00
70566;PMS5003;58249;46.792;-71.248;2022-09-03T02:11:36;11.00;11.00;8.00
70566;PMS5003;58249;46.792;-71.248;2022-09-03T02:13:40;13.33;13.33;9.00
70566;PMS5003;58249;46.792;-71.248;2022-09-03T02:15:45;12.25;12.25;9.25
70566;PMS5003;58249;46.792;-71.248;2022-09-03T02:17:52;13.67;13.67;10.67
70566;PMS5003;58249;46.792;-71.248;2022-09-03T02:19:57;9.67;9.67;8.00
70566;PMS5003;58249;46.792;-71.248;2022-09-03T02:22:05;15.00;14.33;10.00
70566;PMS5003;58249;46.792;-71.248;2022-09-03T02:24:08;12.25;12.25;9.00
70566;PMS5003;58249;46.792;-71.248;2022-09-03T02:26:11;13.00;13.00;11.00
70566;PMS5003;58249;46.792;-71.248;2022-09-03T02:28:18;13.33;13.33;10.00
70566;PMS5003;58249;46.792;-71.248;2022-09-03T02:30:21;16.33;13.00;8.67
70566;PMS5003;58249;46.792;-71.248;2022-09-03T02:32:26;13.00;13.00;8.00
70566;PMS5003;58249;46.792;-71.248;2022-09-03T02:34:30;14.33;12.33;9.00
70566;PMS5003;58249;46.792;-71.248;2022-09-03T02:36:34;12.33;12.33;9.00
70566;PMS5003;58249;46.792;-71.248;2022-09-03T02:38:40;13.00;13.00;10.00
70566;PMS5003;58249;46.792;-71.248;2022-09-03T02:40:43;13.33;13.33;10.00
70566;PMS5003;58249;46.792;-71.248;2022-09-03T02:42:47;12.33;12.00;8.00
70566;PMS5003;58249;46.792;-71.248;2022-09-03T02:44:51;14.00;12.00;9.00
70566;PMS5003;58249;46.792;-71.248;2022-09-03T02:46:58;13.67;13.67;10.00
70566;PMS5003;58249;46.792;-71.248;2022-09-03T02:49:04;13.67;13.67;9.67
70566;PMS5003;58249;46.792;-71.248;2022-09-03T02:51:07;12.00;12.00;9.00
70566;PMS5003;58249;46.792;-71.248;2022-09-03T02:53:10;14.00;14.00;10.67
70566;PMS5003;58249;46.792;-71.248;2022-09-03T02:55:14;15.33;14.33;10.67
70566;PMS5003;58249;46.792;-71.248;2022-09-03T02:57:17;16.00;12.33;9.00
70566;PMS5003;58249;46.792;-71.248;2022-09-03T02:59:20;12.67;12.67;9.33
70566;PMS5003;58249;46.792;-71.248;2022-09-03T03:01:23;13.25;12.50;10.00
70566;PMS5003;58249;46.792;-71.248;2022-09-03T03:03:26;14.00;14.00;12.00
70566;PMS5003;58249;46.792;-71.248;2022-09-03T03:05:35;11.00;11.00;8.00
70566;PMS5003;58249;46.792;-71.248;2022-09-03T03:07:45;12.25;11.75;9.25
70566;PMS5003;58249;46.792;-71.248;2022-09-03T03:09:48;11.50;11.50;9.00
70566;PMS5003;58249;46.792;-71.248;2022-09-03T03:11:51;2.50;2.00;0.00
70566;PMS5003;58249;46.792;-71.248;2022-09-03T03:13:55;8.50;8.50;6.75
70566;PMS5003;58249;46.792;-71.248;2022-09-03T03:15:58;9.00;9.00;6.25
70566;PMS5003;58249;46.792;-71.248;2022-09-03T03:18:02;11.50;11.50;8.00
70566;PMS5003;58249;46.792;-71.248;2022-09-03T03:20:07;10.00;10.00;8.00
70566;PMS5003;58249;46.792;-71.248;2022-09-03T03:22:12;6.00;6.00;5.00
70566;PMS5003;58249;46.792;-71.248;2022-09-03T03:24:16;10.67;10.67;8.67
70566;PMS5003;58249;46.792;-71.248;2022-09-03T03:26:19;11.25;10.25;8.00
70566;PMS5003;58249;46.792;-71.248;2022-09-03T03:28:23;9.00;9.00;7.00
70566;PMS5003;58249;46.792;-71.248;2022-09-03T03:30:26;9.00;9.00;6.00
70566;PMS5003;58249;46.792;-71.248;2022-09-03T03:32:31;11.00;11.00;8.00
70566;PMS5003;58249;46.792;-71.248;2022-09-03T03:34:34;8.00;8.00;5.00
70566;PMS5003;58249;46.792;-71.248;2022-09-03T03:36:38;11.75;11.75;8.00
70566;PMS5003;58249;46.792;-71.248;2022-09-03T03:38:42;10.25;10.25;7.25
70566;PMS5003;58249;46.792;-71.248;2022-09-03T03:40:46;9.00;9.00;7.00
70566;PMS5003;58249;46.792;-71.248;2022-09-03T03:42:49;11.00;10.50;7.75
70566;PMS5003;58249;46.792;-71.248;2022-09-03T03:44:53;10.50;10.50;7.75
70566;PMS5003;58249;46.792;-71.248;2022-09-03T03:46:56;10.75;10.75;8.25
70566;PMS5003;58249;46.792;-71.248;2022-09-03T03:48:59;9.50;9.50;6.75
70566;PMS5003;58249;46.792;-71.248;2022-09-03T03:51:03;10.00;10.00;7.00
70566;PMS5003;58249;46.792;-71.248;2022-09-03T03:53:07;8.00;8.00;6.00
70566;PMS5003;58249;46.792;-71.248;2022-09-03T03:55:12;10.33;10.33;7.00
70566;PMS5003;58249;46.792;-71.248;2022-09-03T03:57:15;10.67;10.67;8.00
70566;PMS5003;58249;46.792;-71.248;2022-09-03T03:59:18;11.67;11.67;8.00
70566;PMS5003;58249;46.792;-71.248;2022-09-03T04:01:22;13.00;13.00;10.00
70566;PMS5003;58249;46.792;-71.248;2022-09-03T04:03:26;15.33;15.33;10.67
70566;PMS5003;58249;46.792;-71.248;2022-09-03T04:05:31;17.00;15.00;11.00
70566;PMS5003;58249;46.792;-71.248;2022-09-03T04:07:34;13.00;13.00;8.00
70566;PMS5003;58249;46.792;-71.248;2022-09-03T04:09:37;14.00;14.00;8.67
70566;PMS5003;58249;46.792;-71.248;2022-09-03T04:11:41;12.00;12.00;10.00
70566;PMS5003;58249;46.792;-71.248;2022-09-03T04:13:45;15.33;14.33;10.33
70566;PMS5003;58249;46.792;-71.248;2022-09-03T04:15:50;11.67;11.67;8.00
70566;PMS5003;58249;46.792;-71.248;2022-09-03T04:17:53;11.67;10.67;8.00
70566;PMS5003;58249;46.792;-71.248;2022-09-03T04:19:56;14.00;14.00;12.00
70566;PMS5003;58249;46.792;-71.248;2022-09-03T04:21:59;15.33;14.33;9.67
70566;PMS5003;58249;46.792;-71.248;2022-09-03T04:24:03;13.67;12.67;8.67
70566;PMS5003;58249;46.792;-71.248;2022-09-03T04:26:07;15.67;15.33;11.00
70566;PMS5003;58249;46.792;-71.248;2022-09-03T04:28:12;14.67;12.33;9.00
70566;PMS5003;58249;46.792;-71.248;2022-09-03T04:30:15;15.00;14.67;11.00
70566;PMS5003;58249;46.792;-71.248;2022-09-03T04:32:18;13.67;12.00;9.67
70566;PMS5003;58249;46.792;-71.248;2022-09-03T04:34:39;12.67;12.67;9.00
70566;PMS5003;58249;46.792;-71.248;2022-09-03T04:36:42;15.67;14.67;10.00
70566;PMS5003;58249;46.792;-71.248;2022-09-03T04:38:46;14.00;14.00;10.00
70566;PMS5003;58249;46.792;-71.248;2022-09-03T04:40:50;16.00;16.00;12.00
70566;PMS5003;58249;46.792;-71.248;2022-09-03T04:42:55;14.67;14.67;11.00
70566;PMS5003;58249;46.792;-71.248;2022-09-03T04:45:02;15.67;15.67;12.00
70566;PMS5003;58249;46.792;-71.248;2022-09-03T04:47:05;13.67;13.67;10.00
70566;PMS5003;58249;46.792;-71.248;2022-09-03T04:49:08;15.00;15.00;11.00
70566;PMS5003;58249;46.792;-71.248;2022-09-03T04:51:13;14.00;14.00;10.33
70566;PMS5003;58249;46.792;-71.248;2022-09-03T04:53:17;17.33;17.33;12.33
70566;PMS5003;58249;46.792;-71.248;2022-09-03T04:55:20;18.67;18.67;14.33
70566;PMS5003;58249;46.792;-71.248;2022-09-03T04:57:24;15.00;14.00;11.00
70566;PMS5003;58249;46.792;-71.248;2022-09-03T04:59:33;14.33;14.33;10.00
70566;PMS5003;58249;46.792;-71.248;2022-09-03T05:01:39;16.67;16.00;11.67
70566;PMS5003;58249;46.792;-71.248;2022-09-03T05:03:42;18.67;17.67;14.00
70566;PMS5003;58249;46.792;-71.248;2022-09-03T05:05:55;17.33;17.33;12.67
70566;PMS5003;58249;46.792;-71.248;2022-09-03T05:07:59;16.33;16.33;12.00
70566;PMS5003;58249;46.792;-71.248;2022-09-03T05:10:03;17.67;17.67;13.00
70566;PMS5003;58249;46.792;-71.248;2022-09-03T05:12:07;17.33;16.00;12.33
70566;PMS5003;58249;46.792;-71.248;2022-09-03T05:14:11;16.67;15.33;12.00
70566;PMS5003;58249;46.792;-71.248;2022-09-03T05:16:15;14.00;14.00;11.33
70566;PMS5003;58249;46.792;-71.248;2022-09-03T05:18:21;16.33;16.00;11.33
70566;PMS5003;58249;46.792;-71.248;2022-09-03T05:20:24;18.00;18.00;15.33
70566;PMS5003;58249;46.792;-71.248;2022-09-03T05:22:28;19.00;19.00;14.33
70566;PMS5003;58249;46.792;-71.248;2022-09-03T05:24:32;18.00;18.00;15.33
70566;PMS5003;58249;46.792;-71.248;2022-09-03T05:26:37;20.33;17.33;13.33
70566;PMS5003;58249;46.792;-71.248;2022-09-03T05:28:41;11.67;10.33;7.33
70566;PMS5003;58249;46.792;-71.248;2022-09-03T05:30:44;16.00;15.00;11.67
70566;PMS5003;58249;46.792;-71.248;2022-09-03T05:32:48;15.00;15.00;11.33
70566;PMS5003;58249;46.792;-71.248;2022-09-03T05:34:53;17.00;15.67;10.00
70566;PMS5003;58249;46.792;-71.248;2022-09-03T05:36:57;17.00;17.00;11.00
70566;PMS5003;58249;46.792;-71.248;2022-09-03T05:39:01;22.67;19.00;13.67
70566;PMS5003;58249;46.792;-71.248;2022-09-03T05:41:05;19.33;19.00;15.00
70566;PMS5003;58249;46.792;-71.248;2022-09-03T05:43:09;16.33;16.33;13.00
70566;PMS5003;58249;46.792;-71.248;2022-09-03T05:45:12;18.00;18.00;13.67
70566;PMS5003;58249;46.792;-71.248;2022-09-03T05:47:15;17.00;16.00;12.00
70566;PMS5003;58249;46.792;-71.248;2022-09-03T05:49:18;18.00;16.00;13.00
70566;PMS5003;58249;46.792;-71.248;2022-09-03T05:51:23;17.00;17.00;12.67
70566;PMS5003;58249;46.792;-71.248;2022-09-03T05:53:26;15.00;15.00;11.67
70566;PMS5003;58249;46.792;-71.248;2022-09-03T05:55:30;21.33;21.00;13.00
70566;PMS5003;58249;46.792;-71.248;2022-09-03T05:57:33;14.00;13.67;10.00
70566;PMS5003;58249;46.792;-71.248;2022-09-03T05:59:36;17.67;17.00;13.00
70566;PMS5003;58249;46.792;-71.248;2022-09-03T06:01:40;19.33;19.33;15.00
70566;PMS5003;58249;46.792;-71.248;2022-09-03T06:03:45;21.00;19.33;16.00
70566;PMS5003;58249;46.792;-71.248;2022-09-03T06:05:49;19.00;19.00;14.33
70566;PMS5003;58249;46.792;-71.248;2022-09-03T06:07:54;21.33;18.67;14.33
70566;PMS5003;58249;46.792;-71.248;2022-09-03T06:09:57;19.33;19.33;15.00
70566;PMS5003;58249;46.792;-71.248;2022-09-03T06:12:00;18.00;17.67;11.67
70566;PMS5003;58249;46.792;-71.248;2022-09-03T06:14:05;24.00;23.00;17.33
70566;PMS5003;58249;46.792;-71.248;2022-09-03T06:16:09;20.00;20.00;15.67
70566;PMS5003;58249;46.792;-71.248;2022-09-03T06:18:12;18.33;18.33;14.00
70566;PMS5003;58249;46.792;-71.248;2022-09-03T06:20:15;20.33;20.33;14.00
70566;PMS5003;58249;46.792;-71.248;2022-09-03T06:22:18;18.33;18.33;14.33
70566;PMS5003;58249;46.792;-71.248;2022-09-03T06:24:26;25.00;25.00;18.33
70566;PMS5003;58249;46.792;-71.248;2022-09-03T06:26:29;19.00;19.00;14.67
70566;PMS5003;58249;46.792;-71.248;2022-09-03T06:28:32;27.00;24.00;18.00
70566;PMS5003;58249;46.792;-71.248;2022-09-03T06:30:36;23.33;23.33;17.33
70566;PMS5003;58249;46.792;-71.248;2022-09-03T06:32:42;24.67;23.33;17.33
70566;PMS5003;58249;46.792;-71.248;2022-09-03T06:34:46;24.33;24.33;18.33
70566;PMS5003;58249;46.792;-71.248;2022-09-03T06:36:49;22.67;22.67;17.67
70566;PMS5003;58249;46.792;-71.248;2022-09-03T06:38:53;30.33;28.67;21.00
70566;PMS5003;58249;46.792;-71.248;2022-09-03T06:40:59;25.00;25.00;17.67
70566;PMS5003;58249;46.792;-71.248;2022-09-03T06:43:03;25.67;25.67;19.00
70566;PMS5003;58249;46.792;-71.248;2022-09-03T06:45:07;21.00;20.00;16.00
70566;PMS5003;58249;46.792;-71.248;2022-09-03T06:47:11;23.00;23.00;18.00
70566;PMS5003;58249;46.792;-71.248;2022-09-03T06:49:14;23.67;23.33;17.00
70566;PMS5003;58249;46.792;-71.248;2022-09-03T06:51:18;22.00;20.00;14.33
70566;PMS5003;58249;46.792;-71.248;2022-09-03T06:53:22;21.33;20.33;15.67
70566;PMS5003;58249;46.792;-71.248;2022-09-03T06:55:26;20.33;19.00;14.00
70566;PMS5003;58249;46.792;-71.248;2022-09-03T06:57:30;21.00;21.00;14.00
70566;PMS5003;58249;46.792;-71.248;2022-09-03T06:59:33;20.33;20.33;14.00
70566;PMS5003;58249;46.792;-71.248;2022-09-03T07:01:36;21.00;21.00;16.00
70566;PMS5003;58249;46.792;-71.248;2022-09-03T07:03:41;16.33;16.33;11.00
70566;PMS5003;58249;46.792;-71.248;2022-09-03T07:05:45;20.33;20.33;13.00
70566;PMS5003;58249;46.792;-71.248;2022-09-03T07:07:49;17.33;17.33;12.33
70566;PMS5003;58249;46.792;-71.248;2022-09-03T07:09:52;15.33;15.00;9.33
70566;PMS5003;58249;46.792;-71.248;2022-09-03T07:11:55;15.00;14.67;10.33
70566;PMS5003;58249;46.792;-71.248;2022-09-03T07:14:00;17.00;17.00;13.00
70566;PMS5003;58249;46.792;-71.248;2022-09-03T07:16:04;16.33;16.33;12.00
70566;PMS5003;58249;46.792;-71.248;2022-09-03T07:18:08;17.00;16.67;12.67
70566;PMS5003;58249;46.792;-71.248;2022-09-03T07:20:12;15.33;14.00;10.33
70566;PMS5003;58249;46.792;-71.248;2022-09-03T07:22:15;16.33;16.33;12.00
70566;PMS5003;58249;46.792;-71.248;2022-09-03T07:24:18;16.67;16.67;11.67
70566;PMS5003;58249;46.792;-71.248;2022-09-03T07:26:22;11.00;10.00;6.00
70566;PMS5003;58249;46.792;-71.248;2022-09-03T07:28:26;11.33;11.33;8.67
70566;PMS5003;58249;46.792;-71.248;2022-09-03T07:30:31;12.00;12.00;8.33
70566;PMS5003;58249;46.792;-71.248;2022-09-03T07:32:34;13.67;13.67;9.67
70566;PMS5003;58249;46.792;-71.248;2022-09-03T07:34:40;12.67;12.33;10.00
70566;PMS5003;58249;46.792;-71.248;2022-09-03T07:36:44;13.00;13.00;9.67
70566;PMS5003;58249;46.792;-71.248;2022-09-03T07:38:50;11.00;11.00;9.33
70566;PMS5003;58249;46.792;-71.248;2022-09-03T07:40:57;10.33;10.33;8.00
70566;PMS5003;58249;46.792;-71.248;2022-09-03T07:43:00;11.00;10.67;9.00
70566;PMS5003;58249;46.792;-71.248;2022-09-03T07:45:05;11.00;11.00;8.33
70566;PMS5003;58249;46.792;-71.248;2022-09-03T07:47:12;10.00;10.00;7.00
70566;PMS5003;58249;46.792;-71.248;2022-09-03T07:49:16;9.00;9.00;6.00
70566;PMS5003;58249;46.792;-71.248;2022-09-03T07:51:20;13.33;12.00;9.67
70566;PMS5003;58249;46.792;-71.248;2022-09-03T07:53:27;12.00;12.00;8.33
70566;PMS5003;58249;46.792;-71.248;2022-09-03T07:55:31;11.00;11.00;7.33
70566;PMS5003;58249;46.792;-71.248;2022-09-03T07:57:34;10.33;10.33;7.67
70566;PMS5003;58249;46.792;-71.248;2022-09-03T07:59:37;9.67;9.67;7.67
70566;PMS5003;58249;46.792;-71.248;2022-09-03T08:01:40;10.00;10.00;7.00
70566;PMS5003;58249;46.792;-71.248;2022-09-03T08:03:46;10.00;10.00;6.67
70566;PMS5003;58249;46.792;-71.248;2022-09-03T08:05:50;9.00;9.00;6.33
70566;PMS5003;58249;46.792;-71.248;2022-09-03T08:07:53;11.33;11.33;7.00
70566;PMS5003;58249;46.792;-71.248;2022-09-03T08:09:56;6.67;6.67;5.67
70566;PMS5003;58249;46.792;-71.248;2022-09-03T08:12:01;12.00;11.00;7.67
70566;PMS5003;58249;46.792;-71.248;2022-09-03T08:14:06;9.00;9.00;6.67
70566;PMS5003;58249;46.792;-71.248;2022-09-03T08:16:10;11.67;11.67;6.67
70566;PMS5003;58249;46.792;-71.248;2022-09-03T08:18:13;9.00;8.67;6.67
70566;PMS5003;58249;46.792;-71.248;2022-09-03T08:20:18;9.00;9.00;6.33
70566;PMS5003;58249;46.792;-71.248;2022-09-03T08:22:21;10.67;10.33;8.00
70566;PMS5003;58249;46.792;-71.248;2022-09-03T08:24:25;8.33;8.33;6.00
70566;PMS5003;58249;46.792;-71.248;2022-09-03T08:26:28;7.00;7.00;5.00
70566;PMS5003;58249;46.792;-71.248;2022-09-03T08:28:32;7.00;7.00;4.33
70566;PMS5003;58249;46.792;-71.248;2022-09-03T08:30:35;8.00;8.00;6.67
70566;PMS5003;58249;46.792;-71.248;2022-09-03T08:32:38;13.00;9.67;6.67
70566;PMS5003;58249;46.792;-71.248;2022-09-03T08:34:42;9.67;8.67;6.00
70566;PMS5003;58249;46.792;-71.248;2022-09-03T08:36:48;8.67;8.67;6.33
70566;PMS5003;58249;46.792;-71.248;2022-09-03T08:38:52;10.00;10.00;7.00
70566;PMS5003;58249;46.792;-71.248;2022-09-03T08:41:01;9.67;9.67;6.67
70566;PMS5003;58249;46.792;-71.248;2022-09-03T08:43:07;8.67;8.67;6.33
70566;PMS5003;58249;46.792;-71.248;2022-09-03T08:45:18;8.33;8.33;6.00
70566;PMS5003;58249;46.792;-71.248;2022-09-03T08:47:23;9.00;9.00;6.00
70566;PMS5003;58249;46.792;-71.248;2022-09-03T08:49:30;6.67;6.67;5.00
70566;PMS5003;58249;46.792;-71.248;2022-09-03T08:51:38;6.00;6.00;4.00
70566;PMS5003;58249;46.792;-71.248;2022-09-03T08:53:45;7.00;7.00;4.33
70566;PMS5003;58249;46.792;-71.248;2022-09-03T08:55:52;8.00;7.33;6.00
70566;PMS5003;58249;46.792;-71.248;2022-09-03T08:58:00;7.33;7.33;5.00
70566;PMS5003;58249;46.792;-71.248;2022-09-03T09:00:06;8.00;8.00;5.33
70566;PMS5003;58249;46.792;-71.248;2022-09-03T09:02:14;6.00;6.00;4.00
70566;PMS5003;58249;46.792;-71.248;2022-09-03T09:04:30;8.00;8.00;5.33
70566;PMS5003;58249;46.792;-71.248;2022-09-03T09:06:42;5.00;5.00;4.00
70566;PMS5003;58249;46.792;-71.248;2022-09-03T09:08:54;9.00;9.00;6.00
70566;PMS5003;58249;46.792;-71.248;2022-09-03T09:11:04;10.00;10.00;6.00
70566;PMS5003;58249;46.792;-71.248;2022-09-03T09:13:14;6.00;6.00;4.00
70566;PMS5003;58249;46.792;-71.248;2022-09-03T09:15:26;7.00;7.00;5.00
70566;PMS5003;58249;46.792;-71.248;2022-09-03T09:17:36;7.33;7.33;4.33
70566;PMS5003;58249;46.792;-71.248;2022-09-03T09:19:53;4.33;4.33;2.33
70566;PMS5003;58249;46.792;-71.248;2022-09-03T09:22:05;7.00;7.00;5.00
70566;PMS5003;58249;46.792;-71.248;2022-09-03T09:24:16;8.33;8.00;5.67
70566;PMS5003;58249;46.792;-71.248;2022-09-03T09:26:23;6.33;6.33;5.00
70566;PMS5003;58249;46.792;-71.248;2022-09-03T09:28:28;3.67;3.67;1.67
70566;PMS5003;58249;46.792;-71.248;2022-09-03T09:30:34;5.67;5.67;4.33
70566;PMS5003;58249;46.792;-71.248;2022-09-03T09:32:37;7.00;5.00;3.33
70566;PMS5003;58249;46.792;-71.248;2022-09-03T09:34:40;6.33;6.33;4.33
70566;PMS5003;58249;46.792;-71.248;2022-09-03T09:36:45;8.00;6.33;5.00
70566;PMS5003;58249;46.792;-71.248;2022-09-03T09:38:50;6.67;6.67;4.67
70566;PMS5003;58249;46.792;-71.248;2022-09-03T09:40:55;4.67;4.67;3.00
70566;PMS5003;58249;46.792;-71.248;2022-09-03T09:43:09;7.00;7.00;5.00
70566;PMS5003;58249;46.792;-71.248;2022-09-03T09:45:15;8.00;7.00;4.00
70566;PMS5003;58249;46.792;-71.248;2022-09-03T09:47:23;6.00;6.00;4.00
70566;PMS5003;58249;46.792;-71.248;2022-09-03T09:49:28;8.00;8.00;5.33
70566;PMS5003;58249;46.792;-71.248;2022-09-03T09:51:32;6.67;6.67;4.00
70566;PMS5003;58249;46.792;-71.248;2022-09-03T09:53:36;6.67;6.00;4.00
70566;PMS5003;58249;46.792;-71.248;2022-09-03T09:55:51;6.33;6.33;5.00
70566;PMS5003;58249;46.792;-71.248;2022-09-03T09:58:05;7.00;7.00;5.00
70566;PMS5003;58249;46.792;-71.248;2022-09-03T10:00:11;8.33;8.33;7.00
70566;PMS5003;58249;46.792;-71.248;2022-09-03T10:02:18;9.00;8.00;5.00
70566;PMS5003;58249;46.792;-71.248;2022-09-03T10:04:28;7.00;7.00;5.00
70566;PMS5003;58249;46.792;-71.248;2022-09-03T10:06:33;9.33;9.33;5.00
70566;PMS5003;58249;46.792;-71.248;2022-09-03T10:09:04;10.00;9.00;6.00
70566;PMS5003;58249;46.792;-71.248;2022-09-03T10:11:08;6.33;6.33;5.00
70566;PMS5003;58249;46.792;-71.248;2022-09-03T10:13:13;8.33;7.00;4.00
70566;PMS5003;58249;46.792;-71.248;2022-09-03T10:15:21;7.67;7.67;5.33
70566;PMS5003;58249;46.792;-71.248;2022-09-03T10:17:30;9.33;9.33;7.33
70566;PMS5003;58249;46.792;-71.248;2022-09-03T10:19:42;9.33;8.00;6.00
70566;PMS5003;58249;46.792;-71.248;2022-09-03T10:22:11;7.00;7.00;6.00
70566;PMS5003;58249;46.792;-71.248;2022-09-03T10:24:26;9.33;9.33;6.33
70566;PMS5003;58249;46.792;-71.248;2022-09-03T10:26:39;9.67;9.67;7.33
70566;PMS5003;58249;46.792;-71.248;2022-09-03T10:28:45;10.33;9.33;7.67
70566;PMS5003;58249;46.792;-71.248;2022-09-03T10:30:58;5.33;5.33;3.00
70566;PMS5003;58249;46.792;-71.248;2022-09-03T10:33:11;9.67;9.00;7.00
70566;PMS5003;58249;46.792;-71.248;2022-09-03T10:35:20;9.00;9.00;6.67
70566;PMS5003;58249;46.792;-71.248;2022-09-03T10:37:31;7.67;7.67;5.67
70566;PMS5003;58249;46.792;-71.248;2022-09-03T10:39:40;10.00;10.00;8.00
70566;PMS5003;58249;46.792;-71.248;2022-09-03T10:41:57;11.67;9.00;6.00
70566;PMS5003;58249;46.792;-71.248;2022-09-03T10:44:17;10.33;10.33;6.00
70566;PMS5003;58249;46.792;-71.248;2022-09-03T10:46:36;6.67;6.33;3.33
70566;PMS5003;58249;46.792;-71.248;2022-09-03T10:48:49;7.00;7.00;5.00
70566;PMS5003;58249;46.792;-71.248;2022-09-03T10:51:15;8.67;8.67;6.00
70566;PMS5003;58249;46.792;-71.248;2022-09-03T10:53:24;6.67;6.67;4.67
70566;PMS5003;58249;46.792;-71.248;2022-09-03T10:55:45;8.00;8.00;6.00
70566;PMS5003;58249;46.792;-71.248;2022-09-03T10:57:53;6.67;6.33;4.00
70566;PMS5003;58249;46.792;-71.248;2022-09-03T11:00:06;8.00;8.00;5.67
70566;PMS5003;58249;46.792;-71.248;2022-09-03T11:02:18;6.67;6.67;5.00
70566;PMS5003;58249;46.792;-71.248;2022-09-03T11:04:31;7.67;7.67;5.67
70566;PMS5003;58249;46.792;-71.248;2022-09-03T11:06:41;12.00;10.00;6.33
70566;PMS5003;58249;46.792;-71.248;2022-09-03T11:08:53;7.25;7.25;5.00
70566;PMS5003;58249;46.792;-71.248;2022-09-03T11:11:01;6.75;6.75;4.50
70566;PMS5003;58249;46.792;-71.248;2022-09-03T11:13:11;5.67;5.67;4.00
70566;PMS5003;58249;46.792;-71.248;2022-09-03T11:15:22;5.75;5.75;4.50
70566;PMS5003;58249;46.792;-71.248;2022-09-03T11:17:28;8.00;7.33;4.33
70566;PMS5003;58249;46.792;-71.248;2022-09-03T11:19:35;9.67;9.33;5.33
70566;PMS5003;58249;46.792;-71.248;2022-09-03T11:21:42;7.00;7.00;5.00
70566;PMS5003;58249;46.792;-71.248;2022-09-03T11:23:45;7.00;7.00;5.00
70566;PMS5003;58249;46.792;-71.248;2022-09-03T11:25:52;5.00;5.00;2.67
70566;PMS5003;58249;46.792;-71.248;2022-09-03T11:28:00;7.00;7.00;5.00
70566;PMS5003;58249;46.792;-71.248;2022-09-03T11:30:10;6.75;6.75;4.75
70566;PMS5003;58249;46.792;-71.248;2022-09-03T11:32:16;8.00;8.00;5.00
70566;PMS5003;58249;46.792;-71.248;2022-09-03T11:34:26;9.00;9.00;6.33
70566;PMS5003;58249;46.792;-71.248;2022-09-03T11:36:32;8.00;8.00;5.00
70566;PMS5003;58249;46.792;-71.248;2022-09-03T11:38:37;9.75;9.00;5.50
70566;PMS5003;58249;46.792;-71.248;2022-09-03T11:40:42;8.00;8.00;5.00
70566;PMS5003;58249;46.792;-71.248;2022-09-03T11:43:06;7.67;7.67;5.33
70566;PMS5003;58249;46.792;-71.248;2022-09-03T11:45:20;9.25;8.00;5.25
70566;PMS5003;58249;46.792;-71.248;2022-09-03T11:47:37;6.00;6.00;4.00
70566;PMS5003;58249;46.792;-71.248;2022-09-03T11:49:45;7.67;7.67;4.33
70566;PMS5003;58249;46.792;-71.248;2022-09-03T11:51:54;6.00;6.00;5.00